Portada
METAR-TAF:

METAR-TAF

Aeroports :

Bucaramanga, Colòmbia

latitud: 07-06N, longitud: 073-12W, altitud: 1189 m

Observació

L'informe es va fer fa 27 minuts, a les 17:00 UTC
Vent 6 kt del Nord
Temperatura 27°C
Humitat 70%
Pressió 1017 hPa
Visibilitat 10 km o més
Núvols disperses a una alçada de 1500 ft

METAR: SKBG 291700Z 35006KT 9999 SCT015 27/21 A3002

Hora: 12:27 (17:27 UTC)

Pronòstic

L'informe es va fer fa 6 hores i 57 minuts, a les 10:30 UTC
Pronòstic vàlid del 29 a les 12 UTC al 30 a les 12 UTC
Vent 2 kt amb direcció variable
Visibilitat 10 km o més
Núvols disperses a una alçada de 1500 ft
Cel ennuvolat a una alçada de 7000 ft
Evolucionant progressivament
l' 29 a les 15 UTC al 29 a les 17 UTC
Vent 8 kt del Nord-Oest
Temporalment
l' 29 a les 19 UTC al 29 a les 22 UTC
Visibilitat: 6000 m
Núvols disperses a una alçada de 1000 ft, Cumulonimbus.
pluja, plugim

TAF: SKBG 291030Z 2912/3012 VRB02KT 9999 SCT015 BKN070 BECMG 2915/2917 32008KT TEMPO 2919/2922 6000 RADZ SCT010CB TX26/2918Z TN19/3011Z

Observacions i pronòstics meteorològics de més de 4000 aeroports (METAR i TAF).

Les estacions disponibles són els punts grocs i vermells al mapa.

Posi el ratolí al punt desitjat per veure el nom de l'estació.

Feu clic per veure les observacions i els pronòstics meteorològics.

Per canviar el mapa: feu clic els botons verds amb una creu de color negre per apropar; al botó verd amb un guió per allunyar la imatge; o en les fletxes verdes per a mapes adjacents.


METAR-TAF: